Time;durP1;ratioP1;P1;durP2;ratioP2;P2;SDS_P1;SDS_P2;PMS_P1;PMS_P2;Temp;Humidity;BMP_temperature;BMP_pressure;BME280_temperature;BME280_humidity;BME280_pressure;Samples;Min_cycle;Max_cycle;Signal;HPM_P1;HPM_P2
2022/05/09 00:00:02;;;;;;;0.20;0.20;;;8.20;99.90;;;;;;4949433;28;20469;-85
2022/05/09 00:02:28;;;;;;;0.27;0.27;;;8.10;99.90;;;;;;4943012;28;20225;-85
2022/05/09 00:04:54;;;;;;;0.30;0.30;;;8.10;99.90;;;;;;4945832;28;20443;-85
2022/05/09 00:07:19;;;;;;;0.27;0.27;;;8.10;99.90;;;;;;4948777;28;20639;-85
2022/05/09 00:09:45;;;;;;;0.30;0.30;;;8.10;99.90;;;;;;4946238;28;20245;-85
2022/05/09 00:12:11;;;;;;;0.30;0.30;;;7.90;99.90;;;;;;4958603;28;20782;-84
2022/05/09 00:14:37;;;;;;;0.30;0.30;;;8.00;99.90;;;;;;4989833;28;20197;-85
2022/05/09 00:17:03;;;;;;;0.30;0.30;;;7.90;99.90;;;;;;4989554;28;21440;-84
2022/05/09 00:19:28;;;;;;;0.30;0.30;;;7.90;99.90;;;;;;4989401;28;20532;-85
2022/05/09 00:21:54;;;;;;;0.30;0.30;;;7.80;99.90;;;;;;4971746;28;20499;-85
2022/05/09 00:24:20;;;;;;;0.30;0.30;;;7.70;99.90;;;;;;4984351;28;21677;-85
2022/05/09 00:26:48;;;;;;;0.30;0.30;;;7.70;99.90;;;;;;4986882;28;20321;-85
2022/05/09 00:29:15;;;;;;;0.30;0.30;;;7.70;99.90;;;;;;4986478;28;20435;-84
2022/05/09 00:31:43;;;;;;;0.30;0.30;;;7.80;99.90;;;;;;4961750;28;20464;-85
2022/05/09 00:34:16;;;;;;;0.23;0.23;;;7.80;99.90;;;;;;4986710;28;20505;-85
2022/05/09 00:36:42;;;;;;;0.23;0.23;;;7.80;99.90;;;;;;4973009;28;20790;-85
2022/05/09 00:39:07;;;;;;;0.30;0.30;;;7.70;99.90;;;;;;4986130;28;20947;-86
2022/05/09 00:41:42;;;;;;;0.30;0.30;;;7.60;99.90;;;;;;4964567;28;20225;-85
2022/05/09 00:44:15;;;;;;;0.30;0.30;;;7.60;99.90;;;;;;4979219;28;21051;-85
2022/05/09 00:46:43;;;;;;;0.30;0.30;;;7.60;99.90;;;;;;4972183;28;20443;-85
2022/05/09 00:49:22;;;;;;;0.30;0.30;;;7.50;99.90;;;;;;4972163;28;20436;-84
2022/05/09 00:51:55;;;;;;;0.30;0.30;;;7.50;99.90;;;;;;4972637;28;20444;-84
2022/05/09 00:54:21;;;;;;;0.30;0.30;;;7.50;99.90;;;;;;4969762;28;21076;-84
2022/05/09 00:56:55;;;;;;;0.30;0.30;;;7.40;99.90;;;;;;4985803;28;20452;-85
2022/05/09 00:59:21;;;;;;;0.30;0.30;;;7.40;99.90;;;;;;4969968;28;20503;-85
2022/05/09 01:01:47;;;;;;;0.30;0.30;;;7.40;99.90;;;;;;4987483;28;20529;-85
2022/05/09 01:04:18;;;;;;;0.40;0.40;;;7.30;99.90;;;;;;4992638;28;20453;-84
2022/05/09 01:06:43;;;;;;;0.20;0.20;;;7.20;99.90;;;;;;4980827;28;20440;-85
2022/05/09 01:09:12;;;;;;;0.30;0.30;;;7.20;99.90;;;;;;4968307;28;22388;-85
2022/05/09 01:11:40;;;;;;;0.30;0.30;;;7.20;99.90;;;;;;4987677;28;20203;-84
2022/05/09 01:14:16;;;;;;;0.20;0.20;;;7.30;99.90;;;;;;4962807;28;20468;-84
2022/05/09 01:16:43;;;;;;;0.30;0.30;;;7.20;99.90;;;;;;4965950;28;20487;-84
2022/05/09 01:19:34;;;;;;;0.30;0.30;;;7.10;99.90;;;;;;4987272;28;20785;-85
2022/05/09 01:22:02;;;;;;;0.30;0.30;;;7.00;99.90;;;;;;4985465;28;20487;-85
2022/05/09 01:24:29;;;;;;;0.30;0.30;;;7.00;99.90;;;;;;4972335;28;20531;-85
2022/05/09 01:26:54;;;;;;;0.30;0.30;;;7.00;99.90;;;;;;4981146;28;20483;-84
2022/05/09 01:29:36;;;;;;;0.30;0.30;;;7.00;99.90;;;;;;4974432;28;20475;-85
2022/05/09 01:32:04;;;;;;;0.30;0.30;;;7.00;99.90;;;;;;4980469;28;20204;-85
2022/05/09 01:34:30;;;;;;;0.30;0.30;;;7.10;99.90;;;;;;4965067;28;20507;-84
2022/05/09 01:37:04;;;;;;;0.30;0.30;;;7.10;99.90;;;;;;4987635;28;20578;-83
2022/05/09 01:39:31;;;;;;;0.30;0.30;;;7.00;99.90;;;;;;4980365;28;20525;-84
2022/05/09 01:41:57;;;;;;;0.30;0.30;;;7.00;99.90;;;;;;4976909;28;20480;-85
2022/05/09 01:44:23;;;;;;;0.30;0.30;;;7.00;99.90;;;;;;4967737;28;20832;-85
2022/05/09 01:49:35;;;;;;;0.30;0.30;;;6.80;99.90;;;;;;4979027;28;20462;-84
2022/05/09 01:52:07;;;;;;;0.30;0.30;;;6.80;99.90;;;;;;4990055;28;20510;-84
2022/05/09 01:54:33;;;;;;;0.30;0.30;;;6.70;99.90;;;;;;4970851;28;20443;-84
2022/05/09 01:56:59;;;;;;;0.30;0.30;;;6.60;99.90;;;;;;4991627;28;20467;-84
2022/05/09 01:59:25;;;;;;;0.30;0.30;;;6.50;99.90;;;;;;4970423;28;20456;-84
2022/05/09 02:01:56;;;;;;;0.30;0.30;;;6.50;99.90;;;;;;4988087;28;20236;-83
2022/05/09 02:04:23;;;;;;;0.33;0.33;;;6.60;99.90;;;;;;4984062;28;20189;-84
2022/05/09 02:06:49;;;;;;;0.40;0.40;;;6.60;99.90;;;;;;4984714;28;21110;-84
2022/05/09 02:09:15;;;;;;;0.33;0.33;;;6.60;99.90;;;;;;4975981;28;20468;-85
2022/05/09 02:11:41;;;;;;;0.30;0.30;;;6.60;99.90;;;;;;4984967;28;20537;-84
2022/05/09 02:14:06;;;;;;;0.30;0.30;;;6.60;99.90;;;;;;4983287;28;20267;-85
2022/05/09 02:16:33;;;;;;;0.30;0.30;;;6.60;99.90;;;;;;4982664;28;20264;-84
2022/05/09 02:18:58;;;;;;;0.30;0.30;;;6.60;99.90;;;;;;4997732;28;20439;-84
2022/05/09 02:21:24;;;;;;;0.30;0.30;;;6.60;99.90;;;;;;4975854;28;20475;-84
2022/05/09 02:23:50;;;;;;;0.30;0.30;;;6.70;99.90;;;;;;4958596;28;20193;-84
2022/05/09 02:26:16;;;;;;;0.30;0.30;;;6.60;99.90;;;;;;4984421;28;20494;-84
2022/05/09 02:28:42;;;;;;;0.30;0.30;;;6.60;99.90;;;;;;4979372;28;20192;-84
2022/05/09 02:31:07;;;;;;;0.30;0.30;;;6.60;99.90;;;;;;4967100;28;20519;-84
2022/05/09 02:33:33;;;;;;;0.30;0.30;;;6.60;99.90;;;;;;4981524;28;20893;-84
2022/05/09 02:35:59;;;;;;;0.30;0.30;;;6.60;99.90;;;;;;4980757;28;20201;-84
2022/05/09 02:38:25;;;;;;;0.40;0.40;;;6.60;99.90;;;;;;4982605;28;20735;-84
2022/05/09 02:40:52;;;;;;;0.40;0.40;;;6.60;99.90;;;;;;4978256;28;21600;-84
2022/05/09 02:43:17;;;;;;;0.30;0.30;;;6.50;99.90;;;;;;4971477;28;20443;-85
2022/05/09 02:45:43;;;;;;;0.30;0.30;;;6.50;99.90;;;;;;4988781;28;20523;-84
2022/05/09 02:48:10;;;;;;;0.33;0.33;;;6.40;99.90;;;;;;4977887;28;20189;-84
2022/05/09 02:50:36;;;;;;;0.30;0.30;;;6.40;99.90;;;;;;4968823;28;20918;-85
2022/05/09 02:53:02;;;;;;;0.30;0.30;;;6.40;99.90;;;;;;4989191;28;20465;-83
2022/05/09 02:55:28;;;;;;;0.30;0.30;;;6.30;99.90;;;;;;4969446;28;20531;-83
2022/05/09 02:57:54;;;;;;;0.30;0.30;;;6.20;99.90;;;;;;4978946;28;20445;-84
2022/05/09 03:00:25;;;;;;;0.30;0.30;;;6.30;99.90;;;;;;4978474;28;20455;-85
2022/05/09 03:05:39;;;;;;;0.30;0.30;;;6.20;99.90;;;;;;4985196;28;20462;-85
2022/05/09 03:08:05;;;;;;;0.30;0.30;;;6.40;99.90;;;;;;4987852;28;20447;-84
2022/05/09 03:10:31;;;;;;;0.40;0.40;;;6.40;99.90;;;;;;4984219;28;20515;-83
2022/05/09 03:13:01;;;;;;;0.30;0.30;;;6.40;99.90;;;;;;4988083;28;21046;-84
2022/05/09 03:15:30;;;;;;;0.33;0.33;;;6.40;99.90;;;;;;4990657;28;20451;-84
2022/05/09 03:17:56;;;;;;;0.30;0.30;;;6.30;99.90;;;;;;4988684;28;20459;-84
2022/05/09 03:20:22;;;;;;;0.30;0.30;;;6.30;99.90;;;;;;4972211;28;20440;-85
2022/05/09 03:22:48;;;;;;;0.30;0.30;;;6.40;99.90;;;;;;4973057;28;20637;-85
2022/05/09 03:25:14;;;;;;;0.30;0.30;;;6.40;99.90;;;;;;4969758;28;20193;-84
2022/05/09 03:27:40;;;;;;;0.30;0.30;;;6.40;99.90;;;;;;4985535;28;20459;-83
2022/05/09 03:30:07;;;;;;;0.30;0.30;;;6.50;99.90;;;;;;4969814;28;20467;-84
2022/05/09 03:32:34;;;;;;;0.30;0.30;;;6.50;99.90;;;;;;4982477;28;20239;-85
2022/05/09 03:34:59;;;;;;;0.30;0.30;;;6.60;99.90;;;;;;4976855;28;20990;-84
2022/05/09 03:37:25;;;;;;;0.30;0.30;;;6.60;99.90;;;;;;4997724;28;20464;-85
2022/05/09 03:39:50;;;;;;;0.30;0.30;;;6.60;99.90;;;;;;4965492;28;20228;-84
2022/05/09 03:42:16;;;;;;;0.30;0.30;;;6.60;99.90;;;;;;4988417;28;20228;-85
2022/05/09 03:44:41;;;;;;;0.30;0.30;;;6.60;99.90;;;;;;4971316;28;20267;-84
2022/05/09 03:47:07;;;;;;;0.30;0.30;;;6.50;99.90;;;;;;4968662;28;20659;-85
2022/05/09 03:49:32;;;;;;;0.30;0.30;;;6.50;99.90;;;;;;4985365;28;20185;-85
2022/05/09 03:51:58;;;;;;;0.30;0.30;;;6.50;99.90;;;;;;4969793;28;20668;-85
2022/05/09 03:54:23;;;;;;;0.30;0.30;;;6.50;99.90;;;;;;4968353;28;20204;-87
2022/05/09 03:56:49;;;;;;;0.30;0.30;;;6.50;99.90;;;;;;4985409;28;20197;-87
2022/05/09 03:59:14;;;;;;;0.30;0.30;;;6.50;99.90;;;;;;4994565;28;20197;-87
2022/05/09 04:01:39;;;;;;;0.33;0.33;;;6.50;99.90;;;;;;4984545;28;20227;-87
2022/05/09 04:04:05;;;;;;;0.30;0.30;;;6.50;99.90;;;;;;4972154;28;20284;-87
2022/05/09 04:06:32;;;;;;;0.33;0.33;;;6.60;99.90;;;;;;4989520;28;20200;-86
2022/05/09 04:08:57;;;;;;;0.30;0.30;;;6.70;99.90;;;;;;5002632;28;20203;-86
2022/05/09 04:11:23;;;;;;;0.30;0.30;;;6.60;99.90;;;;;;4987899;28;22817;-86
2022/05/09 04:13:48;;;;;;;0.40;0.40;;;6.60;99.90;;;;;;4988870;28;20244;-87
2022/05/09 04:18:59;;;;;;;0.30;0.30;;;6.70;99.90;;;;;;4997995;28;20226;-87
2022/05/09 04:21:26;;;;;;;0.30;0.30;;;6.70;99.90;;;;;;4983120;28;20488;-87
2022/05/09 04:23:56;;;;;;;0.30;0.30;;;6.70;99.90;;;;;;4996060;28;20454;-87
2022/05/09 04:26:23;;;;;;;0.30;0.30;;;6.90;99.90;;;;;;4987049;28;20452;-87
2022/05/09 04:28:49;;;;;;;0.30;0.30;;;6.80;99.90;;;;;;4965368;28;20921;-87
2022/05/09 04:31:15;;;;;;;0.30;0.30;;;7.10;99.90;;;;;;4985534;28;20437;-87
2022/05/09 04:33:41;;;;;;;0.23;0.23;;;7.00;99.90;;;;;;4991520;28;20328;-86
2022/05/09 04:36:07;;;;;;;0.37;0.37;;;7.00;99.90;;;;;;4991966;28;20559;-88
2022/05/09 04:38:33;;;;;;;0.30;0.30;;;7.00;99.90;;;;;;4972924;28;20444;-87
2022/05/09 04:40:59;;;;;;;0.30;0.30;;;7.10;99.90;;;;;;4971474;28;20298;-87
2022/05/09 04:43:31;;;;;;;0.30;0.30;;;7.30;99.90;;;;;;4989629;28;20443;-88
2022/05/09 04:45:59;;;;;;;0.30;0.30;;;7.20;99.90;;;;;;4982469;28;20516;-88
2022/05/09 04:48:25;;;;;;;0.30;0.30;;;7.20;99.90;;;;;;4969593;28;20452;-87
2022/05/09 04:50:50;;;;;;;0.30;0.30;;;7.30;99.90;;;;;;4981506;28;20917;-87
2022/05/09 04:53:19;;;;;;;0.30;0.30;;;7.70;99.90;;;;;;4972667;28;20640;-86
2022/05/09 04:55:45;;;;;;;0.30;0.30;;;7.90;99.90;;;;;;4954614;28;21243;-85
2022/05/09 04:58:13;;;;;;;0.30;0.30;;;7.90;99.90;;;;;;4954479;28;20460;-85
2022/05/09 05:00:39;;;;;;;0.30;0.30;;;8.10;99.90;;;;;;4981616;28;20933;-85
2022/05/09 05:03:04;;;;;;;0.30;0.30;;;8.30;99.90;;;;;;4979322;28;20455;-86
2022/05/09 05:05:30;;;;;;;0.20;0.20;;;8.20;99.90;;;;;;4983655;28;20271;-86
2022/05/09 05:07:56;;;;;;;0.30;0.30;;;8.30;99.90;;;;;;4981822;28;20204;-86
2022/05/09 05:10:22;;;;;;;0.20;0.20;;;8.40;99.90;;;;;;4965701;28;20194;-85
2022/05/09 05:12:48;;;;;;;0.30;0.30;;;8.60;99.90;;;;;;4969186;28;20556;-85
2022/05/09 05:15:14;;;;;;;0.30;0.30;;;8.70;99.90;;;;;;4984045;28;20539;-85
2022/05/09 05:17:39;;;;;;;0.30;0.30;;;8.70;99.90;;;;;;4988092;28;20193;-87
2022/05/09 05:20:09;;;;;;;0.30;0.30;;;8.90;99.90;;;;;;5003463;28;20447;-86
2022/05/09 05:22:40;;;;;;;0.27;0.27;;;8.90;99.90;;;;;;4984524;28;20714;-84
2022/05/09 05:25:06;;;;;;;0.20;0.20;;;9.00;99.90;;;;;;4990841;28;20442;-87
2022/05/09 05:27:32;;;;;;;0.30;0.30;;;9.20;99.90;;;;;;5003069;28;20441;-85
2022/05/09 05:29:59;;;;;;;0.30;0.30;;;9.30;99.90;;;;;;4990452;28;20471;-86
2022/05/09 05:32:27;;;;;;;0.20;0.20;;;9.50;99.90;;;;;;4986005;28;20184;-86
2022/05/09 05:34:53;;;;;;;0.20;0.20;;;9.60;99.90;;;;;;4984514;28;20480;-86
2022/05/09 05:37:19;;;;;;;0.20;0.20;;;9.70;99.90;;;;;;4991063;28;20444;-86
2022/05/09 05:39:45;;;;;;;0.27;0.27;;;9.70;99.90;;;;;;4984677;28;20204;-86
2022/05/09 05:42:12;;;;;;;0.20;0.20;;;9.80;99.90;;;;;;4977071;28;20282;-84
2022/05/09 05:44:38;;;;;;;0.30;0.30;;;10.00;99.90;;;;;;4975987;28;21300;-86
2022/05/09 05:47:12;;;;;;;0.27;0.27;;;10.20;99.90;;;;;;4985609;28;20460;-86
2022/05/09 05:49:39;;;;;;;0.20;0.20;;;10.30;99.90;;;;;;4993094;28;20663;-87
2022/05/09 05:52:06;;;;;;;0.20;0.20;;;10.40;99.90;;;;;;4985662;28;20456;-86
2022/05/09 05:54:35;;;;;;;0.20;0.20;;;10.60;99.90;;;;;;4989918;28;20421;-86
2022/05/09 05:57:01;;;;;;;0.20;0.20;;;10.70;99.90;;;;;;4989413;28;20528;-84
2022/05/09 05:59:27;;;;;;;0.20;0.20;;;10.80;99.90;;;;;;5006982;28;20444;-85
2022/05/09 06:01:53;;;;;;;0.20;0.20;;;10.80;99.90;;;;;;4974610;28;20487;-86
2022/05/09 06:04:19;;;;;;;0.20;0.20;;;10.80;99.90;;;;;;4988643;28;20260;-87
2022/05/09 06:06:46;;;;;;;0.20;0.20;;;11.00;99.90;;;;;;4991981;28;20714;-86
2022/05/09 06:09:12;;;;;;;0.20;0.20;;;11.10;99.90;;;;;;4991442;28;20497;-87
2022/05/09 06:11:38;;;;;;;0.20;0.20;;;11.20;99.90;;;;;;4990094;28;20448;-86
2022/05/09 06:14:05;;;;;;;0.20;0.20;;;11.30;99.90;;;;;;4986848;28;20510;-85
2022/05/09 06:16:30;;;;;;;0.20;0.20;;;11.30;99.90;;;;;;4976413;28;20858;-83
2022/05/09 06:18:56;;;;;;;0.20;0.20;;;11.30;99.90;;;;;;4976921;28;20444;-85
2022/05/09 06:21:22;;;;;;;0.20;0.20;;;11.40;99.90;;;;;;4977851;28;20271;-87
2022/05/09 06:23:49;;;;;;;0.20;0.20;;;11.40;99.90;;;;;;4977164;28;20215;-87
2022/05/09 06:26:14;;;;;;;0.20;0.20;;;11.60;99.90;;;;;;4981257;28;20192;-87
2022/05/09 06:28:40;;;;;;;0.20;0.20;;;11.70;99.90;;;;;;4993748;28;20436;-89
2022/05/09 06:31:06;;;;;;;0.20;0.20;;;11.80;99.90;;;;;;4990118;28;20189;-87
2022/05/09 06:33:32;;;;;;;0.20;0.20;;;11.90;99.90;;;;;;4994675;28;20554;-87
2022/05/09 06:35:58;;;;;;;0.20;0.20;;;12.00;99.90;;;;;;4975789;28;20574;-90
2022/05/09 06:38:27;;;;;;;0.20;0.20;;;12.00;99.90;;;;;;4992808;28;20188;-87
2022/05/09 06:40:54;;;;;;;0.20;0.20;;;12.10;99.90;;;;;;4993054;28;20618;-86
2022/05/09 06:43:22;;;;;;;0.20;0.20;;;12.30;99.90;;;;;;4995856;28;20451;-84
2022/05/09 06:45:49;;;;;;;0.20;0.20;;;12.20;99.90;;;;;;4991304;28;20878;-86
2022/05/09 06:48:15;;;;;;;0.20;0.20;;;12.40;99.90;;;;;;4971964;28;20451;-86
2022/05/09 06:50:40;;;;;;;0.20;0.20;;;12.30;99.90;;;;;;4991387;28;20440;-86
2022/05/09 06:53:07;;;;;;;0.10;0.10;;;12.40;99.90;;;;;;4992964;28;20208;-86
2022/05/09 06:55:33;;;;;;;0.20;0.20;;;12.70;99.90;;;;;;4990579;28;20205;-86
2022/05/09 06:57:58;;;;;;;0.10;0.10;;;13.00;99.90;;;;;;4992097;28;20436;-84
2022/05/09 07:00:25;;;;;;;0.20;0.20;;;12.80;99.90;;;;;;4988031;28;20570;-85
2022/05/09 07:02:51;;;;;;;0.10;0.10;;;12.80;99.90;;;;;;4992119;28;20208;-86
2022/05/09 07:05:19;;;;;;;0.20;0.20;;;12.80;99.90;;;;;;4964825;28;20446;-87
2022/05/09 07:07:46;;;;;;;0.20;0.20;;;12.90;99.90;;;;;;4999876;28;20493;-86
2022/05/09 07:10:13;;;;;;;0.20;0.20;;;13.20;99.90;;;;;;5008079;28;21011;-86
2022/05/09 07:12:50;;;;;;;0.20;0.20;;;13.10;99.90;;;;;;5003910;28;21243;-88
2022/05/09 07:15:22;;;;;;;0.20;0.20;;;13.00;99.90;;;;;;4971604;28;20475;-83
2022/05/09 07:17:50;;;;;;;0.20;0.20;;;13.20;99.90;;;;;;4998692;28;20451;-82
2022/05/09 07:20:16;;;;;;;0.20;0.20;;;13.40;99.90;;;;;;4971852;28;20862;-87
2022/05/09 07:22:42;;;;;;;0.20;0.20;;;13.40;99.90;;;;;;4990776;28;20495;-89
2022/05/09 07:25:11;;;;;;;0.10;0.10;;;13.40;99.90;;;;;;4988449;28;20444;-87
2022/05/09 07:27:36;;;;;;;0.10;0.10;;;13.50;99.90;;;;;;4993196;28;20928;-87
2022/05/09 07:30:03;;;;;;;0.20;0.20;;;13.70;99.90;;;;;;4994251;28;20536;-89
2022/05/09 07:32:29;;;;;;;0.20;0.20;;;13.60;99.90;;;;;;4975333;28;20193;-86
2022/05/09 07:34:54;;;;;;;0.20;0.20;;;13.50;99.90;;;;;;4984439;28;20483;-89
2022/05/09 07:37:21;;;;;;;0.20;0.20;;;13.50;99.90;;;;;;4990442;28;20659;-88
2022/05/09 07:39:47;;;;;;;0.20;0.20;;;13.50;99.90;;;;;;4989071;28;20704;-84
2022/05/09 07:42:13;;;;;;;0.10;0.10;;;13.60;99.90;;;;;;4974501;28;20591;-82
2022/05/09 07:44:38;;;;;;;0.13;0.13;;;13.80;99.90;;;;;;4993842;28;20283;-86
2022/05/09 07:47:04;;;;;;;0.20;0.20;;;13.90;99.90;;;;;;4991723;28;20824;-85
2022/05/09 07:49:29;;;;;;;0.17;0.17;;;14.00;99.90;;;;;;4985872;28;21063;-84
2022/05/09 07:51:55;;;;;;;0.10;0.10;;;14.00;99.90;;;;;;4990675;28;20244;-85
2022/05/09 07:54:20;;;;;;;0.10;0.10;;;14.10;99.90;;;;;;4988468;28;20197;-86
2022/05/09 07:56:46;;;;;;;0.10;0.10;;;14.10;99.90;;;;;;4983165;28;20193;-92
2022/05/09 07:59:12;;;;;;;0.10;0.10;;;14.30;99.90;;;;;;4972754;28;20189;-85
2022/05/09 08:01:38;;;;;;;0.10;0.10;;;14.60;99.90;;;;;;4975333;28;20224;-90
2022/05/09 08:17:20;;;;;;;0.10;0.10;;;15.30;99.90;;;;;;5181278;27;20583;-81
2022/05/09 08:19:47;;;;;;;0.10;0.10;;;15.50;99.90;;;;;;5145055;27;20432;-86
2022/05/09 08:22:13;;;;;;;0.10;0.10;;;15.90;99.90;;;;;;5144501;27;20186;-83
2022/05/09 08:24:38;;;;;;;0.10;0.10;;;15.70;99.90;;;;;;5164670;27;20431;-83
2022/05/09 08:27:05;;;;;;;0.10;0.10;;;16.00;99.90;;;;;;5168888;27;20438;-86
2022/05/09 08:29:30;;;;;;;0.10;0.10;;;16.00;99.90;;;;;;5167896;27;20234;-85
2022/05/09 08:31:56;;;;;;;0.10;0.10;;;16.40;99.90;;;;;;5149912;27;20431;-86
2022/05/09 08:34:21;;;;;;;0.10;0.10;;;16.50;99.90;;;;;;5147119;27;20535;-86
2022/05/09 08:36:48;;;;;;;0.10;0.10;;;16.30;99.90;;;;;;5165263;27;20300;-83
2022/05/09 08:39:15;;;;;;;0.10;0.10;;;16.50;99.90;;;;;;5167760;27;20189;-84
2022/05/09 08:41:57;;;;;;;0.10;0.10;;;16.50;99.90;;;;;;5167588;27;20557;-86
2022/05/09 08:44:27;;;;;;;0.10;0.10;;;16.70;99.90;;;;;;5152963;27;20437;-87
2022/05/09 08:47:27;;;;;;;0.10;0.10;;;16.60;99.90;;;;;;5148381;27;20965;-86
2022/05/09 08:50:09;;;;;;;0.10;0.10;;;16.60;99.90;;;;;;5155428;27;21006;-93
2022/05/09 08:52:42;;;;;;;0.13;0.10;;;16.70;99.90;;;;;;5147193;27;20436;-87
2022/05/09 08:55:10;;;;;;;0.10;0.10;;;16.80;99.90;;;;;;5147901;27;20443;-89
2022/05/09 08:57:44;;;;;;;0.10;0.10;;;16.90;99.90;;;;;;5160472;27;20448;-87
2022/05/09 09:00:11;;;;;;;0.10;0.10;;;17.30;99.90;;;;;;5146330;27;20456;-91
2022/05/09 09:02:43;;;;;;;0.10;0.10;;;17.40;99.90;;;;;;5169963;27;20480;-90
2022/05/09 09:05:11;;;;;;;0.10;0.10;;;17.70;99.90;;;;;;5163947;27;20515;-86
2022/05/09 09:07:48;;;;;;;0.10;0.10;;;17.80;99.90;;;;;;5159866;27;20503;-89
2022/05/09 09:10:19;;;;;;;0.10;0.10;;;17.80;99.90;;;;;;5165249;27;20484;-91
2022/05/09 09:12:59;;;;;;;0.10;0.10;;;17.90;99.90;;;;;;5164794;27;20528;-92
2022/05/09 09:16:04;;;;;;;0.10;0.10;;;17.90;99.90;;;;;;5138155;27;21184;-91
2022/05/09 09:19:01;;;;;;;0.10;0.10;;;18.30;99.90;;;;;;5159627;27;20479;-92
2022/05/09 09:22:02;;;;;;;0.10;0.10;;;18.10;99.90;;;;;;5163276;27;20942;-89
2022/05/09 09:24:51;;;;;;;0.10;0.10;;;17.40;98.90;;;;;;5165439;27;20479;-89
2022/05/09 09:27:54;;;;;;;0.10;0.10;;;17.70;98.80;;;;;;5135216;27;20436;-94
2022/05/09 09:30:22;;;;;;;0.10;0.10;;;17.90;99.40;;;;;;5156421;27;20435;-93
2022/05/09 09:32:59;;;;;;;0.10;0.10;;;18.10;97.70;;;;;;5150638;27;20432;-93
2022/05/09 09:35:40;;;;;;;0.10;0.10;;;18.10;96.40;;;;;;5126952;27;20597;-94
2022/05/09 09:38:33;;;;;;;0.10;0.10;;;18.30;97.40;;;;;;5156163;27;20439;-94
2022/05/09 09:41:27;;;;;;;0.10;0.10;;;18.50;97.50;;;;;;5141995;27;20883;-93
2022/05/09 09:44:06;;;;;;;0.10;0.10;;;18.70;95.50;;;;;;5134965;27;20497;-91
2022/05/09 09:46:32;;;;;;;0.10;0.10;;;19.10;95.00;;;;;;5138662;27;20862;-92
2022/05/09 09:49:07;;;;;;;0.10;0.10;;;18.90;95.60;;;;;;5158975;27;20460;-96
2022/05/09 09:51:47;;;;;;;0.10;0.10;;;19.20;96.00;;;;;;5155216;22;20283;-93
2022/05/09 09:54:19;;;;;;;0.10;0.10;;;19.70;98.20;;;;;;5114871;28;20430;-96
2022/05/09 09:56:45;;;;;;;0.10;0.10;;;19.90;95.70;;;;;;5103313;28;20475;-96
2022/05/09 09:59:13;;;;;;;0.10;0.10;;;19.40;94.10;;;;;;5073368;28;20584;-95
2022/05/09 10:01:39;;;;;;;0.10;0.10;;;19.40;95.50;;;;;;5113943;28;20443;-94
2022/05/09 10:04:10;;;;;;;0.10;0.10;;;19.70;94.50;;;;;;5086900;28;20499;-96
2022/05/09 10:07:00;;;;;;;0.10;0.10;;;20.00;95.60;;;;;;5093332;28;20454;-88
2022/05/09 10:09:32;;;;;;;0.10;0.10;;;19.30;91.40;;;;;;5068575;28;20869;-93
2022/05/09 10:12:20;;;;;;;0.10;0.10;;;19.30;92.20;;;;;;5067678;28;20450;-90
2022/05/09 10:14:47;;;;;;;0.10;0.10;;;19.20;90.60;;;;;;5091011;28;20435;-88
2022/05/09 10:17:35;;;;;;;0.10;0.10;;;19.00;89.60;;;;;;5072232;28;21001;-89
2022/05/09 10:20:27;;;;;;;0.10;0.10;;;20.00;90.80;;;;;;5057156;28;20443;-89
2022/05/09 10:26:07;;;;;;;0.10;0.00;;;20.40;90.20;;;;;;5090062;28;20441;-86
2022/05/09 10:28:36;;;;;;;0.10;0.00;;;21.00;92.00;;;;;;5087964;28;20491;-87
2022/05/09 10:31:11;;;;;;;0.10;0.00;;;21.40;90.70;;;;;;5087301;28;20889;-88
2022/05/09 10:33:55;;;;;;;0.10;0.00;;;21.80;90.10;;;;;;5087315;28;20814;-95
2022/05/09 10:36:26;;;;;;;0.10;0.00;;;21.20;89.10;;;;;;5088517;28;20493;-89
2022/05/09 10:39:07;;;;;;;0.10;0.10;;;21.40;77.50;;;;;;5084797;28;20444;-90
2022/05/09 10:41:43;;;;;;;0.10;0.00;;;20.90;75.00;;;;;;5071524;28;20448;-87
2022/05/09 10:44:28;;;;;;;0.10;0.00;;;21.30;79.30;;;;;;5087435;28;20439;-88
2022/05/09 10:47:05;;;;;;;0.10;0.00;;;21.00;80.10;;;;;;5081774;28;20443;-89
2022/05/09 10:49:53;;;;;;;0.10;0.00;;;21.90;82.40;;;;;;5086157;28;20447;-94
2022/05/09 10:52:48;;;;;;;0.10;0.00;;;22.30;78.90;;;;;;5088984;28;20467;-89
2022/05/09 10:55:22;;;;;;;0.10;0.00;;;22.50;80.80;;;;;;5085943;28;20510;-88
2022/05/09 10:58:07;;;;;;;0.10;0.00;;;22.70;76.00;;;;;;5088418;28;20443;-96
2022/05/09 11:00:37;;;;;;;0.10;0.00;;;22.90;74.00;;;;;;5093001;28;20478;-94
2022/05/09 11:03:17;;;;;;;0.00;0.00;;;22.80;74.80;;;;;;5088710;28;20446;-96
2022/05/09 11:06:08;;;;;;;0.00;0.00;;;23.30;71.60;;;;;;5073792;28;20447;-96
2022/05/09 11:08:40;;;;;;;0.10;0.00;;;23.50;69.70;;;;;;5089769;28;20442;-95
2022/05/09 11:11:25;;;;;;;0.10;0.00;;;23.40;67.80;;;;;;5074542;28;20543;-94
2022/05/09 11:14:21;;;;;;;0.10;0.00;;;23.40;73.80;;;;;;5094306;28;20942;-94
2022/05/09 11:17:41;;;;;;;0.10;0.00;;;23.60;66.70;;;;;;5087209;28;20573;-95
2022/05/09 11:20:26;;;;;;;0.10;0.00;;;23.50;64.10;;;;;;5078127;28;20435;-96
2022/05/09 11:23:16;;;;;;;0.10;0.00;;;23.60;67.50;;;;;;5096170;28;20460;-88
2022/05/09 11:26:09;;;;;;;0.10;0.00;;;23.00;65.40;;;;;;5055536;28;20434;-92
2022/05/09 11:29:05;;;;;;;0.10;0.00;;;23.00;66.50;;;;;;5089982;28;20446;-90
2022/05/09 11:31:43;;;;;;;0.10;0.00;;;22.80;69.60;;;;;;5089106;28;20508;-88
2022/05/09 11:34:33;;;;;;;0.10;0.00;;;23.20;67.30;;;;;;5092094;28;20431;-94
2022/05/09 11:37:09;;;;;;;0.10;0.00;;;22.80;63.30;;;;;;5088899;28;20555;-96
2022/05/09 11:40:10;;;;;;;0.10;0.00;;;23.50;65.30;;;;;;5092449;28;20483;-93
2022/05/09 11:45:41;;;;;;;0.10;0.00;;;22.60;63.90;;;;;;5086594;28;20449;-88
2022/05/09 11:48:27;;;;;;;0.10;0.00;;;23.40;66.50;;;;;;5066966;28;21370;-88
2022/05/09 11:51:12;;;;;;;0.10;0.00;;;23.90;65.70;;;;;;5088384;28;20558;-87
2022/05/09 11:53:42;;;;;;;0.10;0.00;;;24.00;63.10;;;;;;5068446;28;20488;-88
2022/05/09 11:56:08;;;;;;;0.10;0.00;;;23.70;71.90;;;;;;5070558;28;20483;-87
2022/05/09 11:58:41;;;;;;;0.10;0.00;;;23.90;65.80;;;;;;5088237;28;20794;-87
2022/05/09 12:01:07;;;;;;;0.10;0.00;;;24.30;67.60;;;;;;5085430;28;20435;-90
2022/05/09 12:03:42;;;;;;;0.10;0.00;;;24.50;65.00;;;;;;5087021;28;20439;-88
2022/05/09 12:06:14;;;;;;;0.10;0.00;;;23.70;62.80;;;;;;5082339;28;20450;-88
2022/05/09 12:08:45;;;;;;;0.10;0.00;;;23.80;62.90;;;;;;5072752;28;20443;-91
2022/05/09 12:11:17;;;;;;;0.10;0.00;;;23.50;62.20;;;;;;5077398;28;20524;-92
2022/05/09 12:13:42;;;;;;;0.10;0.00;;;23.80;62.50;;;;;;5087001;28;20445;-90
2022/05/09 12:16:08;;;;;;;0.10;0.00;;;23.90;61.60;;;;;;5069588;28;20483;-91
2022/05/09 12:19:11;;;;;;;0.10;0.00;;;24.50;60.10;;;;;;5086859;28;20275;-91
2022/05/09 12:21:37;;;;;;;0.10;0.00;;;24.60;58.20;;;;;;5085920;28;20183;-89
2022/05/09 12:24:14;;;;;;;0.10;0.00;;;24.10;62.20;;;;;;5067501;28;20934;-89
2022/05/09 12:26:42;;;;;;;0.10;0.00;;;24.40;58.60;;;;;;5077923;28;20572;-87
2022/05/09 12:29:11;;;;;;;0.10;0.00;;;24.80;58.80;;;;;;5068537;28;21018;-85
2022/05/09 12:31:59;;;;;;;0.10;0.00;;;24.20;59.70;;;;;;5065624;28;20446;-93
2022/05/09 12:34:46;;;;;;;0.10;0.00;;;25.10;62.30;;;;;;5089005;28;20444;-96
2022/05/09 12:37:15;;;;;;;0.10;0.00;;;25.00;59.00;;;;;;5068534;28;20479;-91
2022/05/09 12:39:52;;;;;;;0.10;0.00;;;24.60;54.50;;;;;;5067844;28;20439;-89
2022/05/09 12:42:39;;;;;;;0.10;0.00;;;24.10;54.20;;;;;;5090954;28;20442;-93
2022/05/09 12:45:05;;;;;;;0.10;0.00;;;24.10;55.00;;;;;;5071825;28;20466;-91
2022/05/09 12:47:34;;;;;;;0.10;0.00;;;24.10;55.40;;;;;;5096418;28;20423;-96
2022/05/09 12:50:24;;;;;;;0.10;0.00;;;24.20;55.20;;;;;;5078601;28;20435;-96
2022/05/09 12:53:00;;;;;;;0.10;0.00;;;24.60;56.30;;;;;;5065265;28;20566;-94
2022/05/09 12:58:27;;;;;;;0.10;0.00;;;24.60;55.20;;;;;;5061545;28;20450;-86
2022/05/09 13:01:05;;;;;;;0.10;0.00;;;24.20;52.30;;;;;;5063089;28;20474;-88
2022/05/09 13:03:31;;;;;;;0.10;0.00;;;24.00;52.90;;;;;;5071768;28;20581;-96
2022/05/09 13:06:13;;;;;;;0.10;0.00;;;24.20;52.50;;;;;;5067314;28;20483;-94
2022/05/09 13:08:40;;;;;;;0.10;0.00;;;24.20;52.90;;;;;;5070021;28;20531;-88
2022/05/09 13:11:14;;;;;;;0.10;0.00;;;24.70;55.60;;;;;;5063474;28;20436;-92
2022/05/09 13:13:45;;;;;;;0.10;0.00;;;24.40;53.40;;;;;;5064990;28;20428;-88
2022/05/09 13:16:20;;;;;;;0.10;0.00;;;23.60;54.60;;;;;;5059180;28;21299;-87
2022/05/09 13:18:46;;;;;;;0.10;0.00;;;23.00;55.20;;;;;;5054523;28;20425;-95
2022/05/09 13:21:12;;;;;;;0.10;0.00;;;22.90;56.50;;;;;;5064643;28;20541;-90
2022/05/09 13:23:42;;;;;;;0.10;0.00;;;22.80;55.70;;;;;;5073432;28;20885;-90
2022/05/09 13:26:17;;;;;;;0.10;0.10;;;22.70;56.50;;;;;;5052987;28;20186;-89
2022/05/09 13:29:09;;;;;;;0.10;0.00;;;22.70;55.70;;;;;;5054339;28;20847;-88
2022/05/09 13:31:46;;;;;;;0.10;0.00;;;23.30;56.60;;;;;;5071402;28;20962;-94
2022/05/09 13:34:25;;;;;;;0.10;0.00;;;23.20;57.50;;;;;;5052594;28;20459;-86
2022/05/09 13:36:51;;;;;;;0.10;0.10;;;23.20;57.50;;;;;;5064037;28;20484;-92
2022/05/09 13:39:31;;;;;;;0.10;0.00;;;23.00;57.00;;;;;;5074321;28;20430;-88